Time;durP1;ratioP1;P1;durP2;ratioP2;P2;SDS_P1;SDS_P2;PMS_P1;PMS_P2;Temp;Humidity;BMP_temperature;BMP_pressure;BME280_temperature;BME280_humidity;BME280_pressure;Samples;Min_cycle;Max_cycle;Signal;HPM_P1;HPM_P2
2023/03/29 00:00:40;;;;;;;5.95;3.17;;;5.80;99.90;;;;;;5006138;28;20437;-77
2023/03/29 00:03:06;;;;;;;6.55;3.40;;;5.80;99.90;;;;;;5004902;28;20036;-75
2023/03/29 00:05:35;;;;;;;11.07;3.38;;;5.70;99.90;;;;;;5015713;28;20038;-74
2023/03/29 00:08:02;;;;;;;11.00;3.53;;;5.80;99.90;;;;;;5003680;28;20018;-79
2023/03/29 00:10:31;;;;;;;10.02;3.35;;;5.70;99.90;;;;;;5006075;28;20109;-77
2023/03/29 00:12:57;;;;;;;7.53;3.97;;;5.70;99.90;;;;;;4991277;28;20022;-75
2023/03/29 00:15:23;;;;;;;6.32;2.92;;;5.70;99.90;;;;;;5006113;28;20275;-76
2023/03/29 00:17:49;;;;;;;9.07;2.80;;;5.80;99.90;;;;;;4988824;28;20033;-74
2023/03/29 00:20:15;;;;;;;8.40;3.70;;;5.80;99.90;;;;;;5007035;28;20408;-76
2023/03/29 00:22:42;;;;;;;9.00;3.72;;;5.80;99.90;;;;;;5032271;28;20030;-75
2023/03/29 00:25:09;;;;;;;8.48;3.38;;;5.70;99.90;;;;;;5005552;28;20037;-75
2023/03/29 00:27:35;;;;;;;6.90;3.42;;;5.70;99.90;;;;;;4987983;28;20486;-75
2023/03/29 00:30:03;;;;;;;9.20;3.35;;;5.70;99.90;;;;;;4989741;28;20448;-75
2023/03/29 00:32:29;;;;;;;7.43;2.80;;;5.70;99.90;;;;;;5006010;28;20042;-76
2023/03/29 00:34:55;;;;;;;9.73;3.83;;;5.70;99.90;;;;;;5007180;28;20022;-75
2023/03/29 00:37:25;;;;;;;11.25;3.00;;;5.70;99.90;;;;;;5032806;28;20160;-75
2023/03/29 00:39:52;;;;;;;7.03;3.08;;;5.70;99.90;;;;;;5002708;28;20030;-77
2023/03/29 00:42:18;;;;;;;7.53;3.15;;;5.60;99.90;;;;;;5004613;28;20486;-76
2023/03/29 00:45:02;;;;;;;7.63;3.47;;;5.70;99.90;;;;;;5016675;28;20037;-74
2023/03/29 00:47:42;;;;;;;5.10;2.40;;;5.70;99.90;;;;;;5006094;28;20251;-74
2023/03/29 00:50:44;;;;;;;5.10;2.33;;;5.70;99.90;;;;;;5008309;28;20022;-75
2023/03/29 00:53:14;;;;;;;7.38;2.88;;;5.70;99.90;;;;;;4994693;28;20049;-76
2023/03/29 00:55:46;;;;;;;7.97;3.67;;;5.70;99.90;;;;;;5007691;28;20056;-76
2023/03/29 00:58:17;;;;;;;7.07;2.95;;;5.70;99.90;;;;;;5001934;28;20116;-75
2023/03/29 01:00:54;;;;;;;6.75;2.85;;;5.80;99.90;;;;;;5004289;28;20033;-77
2023/03/29 01:03:24;;;;;;;10.65;3.10;;;5.70;99.90;;;;;;4989505;28;20108;-75
2023/03/29 01:06:01;;;;;;;7.82;2.80;;;5.80;99.90;;;;;;5017310;28;20014;-75
2023/03/29 01:08:39;;;;;;;9.15;3.17;;;5.80;99.90;;;;;;5011490;28;20072;-75
2023/03/29 01:11:07;;;;;;;8.23;3.00;;;5.80;99.90;;;;;;5011810;28;20037;-76
2023/03/29 01:13:40;;;;;;;5.78;2.65;;;5.80;99.90;;;;;;5012803;28;20442;-75
2023/03/29 01:16:08;;;;;;;6.28;3.08;;;5.80;99.90;;;;;;5019710;28;20038;-76
2023/03/29 01:18:34;;;;;;;8.82;3.15;;;5.80;99.90;;;;;;5009161;28;20030;-74
2023/03/29 01:21:14;;;;;;;7.22;3.03;;;5.80;99.90;;;;;;5011044;28;20033;-76
2023/03/29 01:24:07;;;;;;;4.95;2.50;;;5.80;99.90;;;;;;4995939;28;20569;-77
2023/03/29 01:26:39;;;;;;;5.10;2.80;;;5.70;99.90;;;;;;5012512;28;20430;-75
2023/03/29 01:29:27;;;;;;;9.27;3.63;;;5.80;99.90;;;;;;4994950;28;20030;-78
2023/03/29 01:32:05;;;;;;;8.57;3.00;;;5.80;99.90;;;;;;4995904;28;20029;-75
2023/03/29 01:34:37;;;;;;;8.77;2.90;;;5.70;99.90;;;;;;5028989;28;20383;-76
2023/03/29 01:37:28;;;;;;;8.27;3.20;;;5.70;99.90;;;;;;5009266;28;20038;-76
2023/03/29 01:39:54;;;;;;;;;;;5.70;99.90;;;;;;4994552;28;20529;-76
2023/03/29 01:42:41;;;;;;;9.50;3.08;;;5.70;99.90;;;;;;5013291;28;19936;-76
2023/03/29 01:45:21;;;;;;;6.68;2.95;;;5.70;99.90;;;;;;4993374;28;20403;-75
2023/03/29 01:48:13;;;;;;;6.53;3.05;;;5.70;99.90;;;;;;5010921;28;20105;-76
2023/03/29 01:50:48;;;;;;;8.75;3.13;;;5.70;99.90;;;;;;5012679;28;20125;-73
2023/03/29 01:53:21;;;;;;;7.97;4.28;;;5.70;99.90;;;;;;5028147;28;20038;-74
2023/03/29 01:55:55;;;;;;;5.82;2.65;;;5.70;99.90;;;;;;5019314;28;20057;-74
2023/03/29 01:58:28;;;;;;;7.72;2.80;;;5.60;99.90;;;;;;5012638;28;20057;-76
2023/03/29 02:00:54;;;;;;;6.78;2.72;;;5.60;99.90;;;;;;5011356;28;20148;-75
2023/03/29 02:03:25;;;;;;;6.78;2.47;;;5.60;99.90;;;;;;5011337;28;20217;-75
2023/03/29 02:05:52;;;;;;;7.10;2.80;;;5.60;99.90;;;;;;5010855;28;20022;-75
2023/03/29 02:08:21;;;;;;;8.18;2.63;;;5.60;99.90;;;;;;5009873;28;20040;-73
2023/03/29 02:10:47;;;;;;;6.18;2.58;;;5.60;99.90;;;;;;5012322;28;20033;-75
2023/03/29 02:13:13;;;;;;;7.38;2.72;;;5.60;99.90;;;;;;5011163;28;20034;-75
2023/03/29 02:15:38;;;;;;;6.28;2.35;;;5.60;99.90;;;;;;5010083;28;20040;-74
2023/03/29 02:18:05;;;;;;;6.22;2.50;;;5.60;99.90;;;;;;4994388;28;20083;-74
2023/03/29 02:20:37;;;;;;;7.20;2.50;;;5.50;99.90;;;;;;5008140;28;20041;-74
2023/03/29 02:23:36;;;;;;;7.97;2.70;;;5.50;99.90;;;;;;5008009;28;20629;-76
2023/03/29 02:26:02;;;;;;;8.75;3.00;;;5.50;99.90;;;;;;4996485;28;20108;-75
2023/03/29 02:28:30;;;;;;;10.02;2.70;;;5.50;99.90;;;;;;5006779;28;20039;-77
2023/03/29 02:31:08;;;;;;;6.72;2.63;;;5.50;99.90;;;;;;5009401;28;20030;-75
2023/03/29 02:33:47;;;;;;;7.40;2.30;;;5.50;99.90;;;;;;5009515;28;20030;-76
2023/03/29 02:36:23;;;;;;;9.73;3.03;;;5.50;99.90;;;;;;5006921;28;20036;-75
2023/03/29 02:38:51;;;;;;;7.65;2.47;;;5.50;99.90;;;;;;5006225;28;20037;-75
2023/03/29 02:41:17;;;;;;;9.57;2.83;;;5.50;99.90;;;;;;4991335;28;20036;-75
2023/03/29 02:43:45;;;;;;;7.78;2.80;;;5.50;99.90;;;;;;5006779;28;20025;-76
2023/03/29 02:46:13;;;;;;;6.93;2.70;;;5.50;99.90;;;;;;5005984;28;20467;-75
2023/03/29 02:48:40;;;;;;;10.43;3.60;;;5.50;99.90;;;;;;5007020;28;20104;-75
2023/03/29 02:51:16;;;;;;;6.47;2.83;;;5.50;99.90;;;;;;5006577;28;20327;-75
2023/03/29 02:54:00;;;;;;;7.50;3.05;;;5.50;99.90;;;;;;5003339;28;20057;-75
2023/03/29 02:56:26;;;;;;;10.07;2.58;;;5.40;99.90;;;;;;5017526;28;20034;-76
2023/03/29 02:58:52;;;;;;;9.43;3.10;;;5.40;99.90;;;;;;5007634;28;20224;-75
2023/03/29 03:01:19;;;;;;;6.90;2.80;;;5.40;99.90;;;;;;5006426;28;20029;-77
2023/03/29 03:03:46;;;;;;;4.55;2.22;;;5.30;99.90;;;;;;5007955;28;20509;-75
2023/03/29 03:06:12;;;;;;;6.13;2.50;;;5.30;99.90;;;;;;5007352;28;20030;-74
2023/03/29 03:08:38;;;;;;;5.18;2.40;;;5.30;99.90;;;;;;5007259;28;20049;-74
2023/03/29 03:11:05;;;;;;;6.18;2.35;;;5.30;99.90;;;;;;5034414;28;20053;-75
2023/03/29 03:13:31;;;;;;;5.68;2.30;;;5.20;99.90;;;;;;4990756;28;20197;-75
2023/03/29 03:15:57;;;;;;;6.82;2.40;;;5.20;99.90;;;;;;5007316;28;20492;-76
2023/03/29 03:18:23;;;;;;;5.53;2.40;;;5.20;99.90;;;;;;5008066;28;20029;-76
2023/03/29 03:20:56;;;;;;;4.50;2.58;;;5.10;99.90;;;;;;5008347;28;20128;-75
2023/03/29 03:23:23;;;;;;;10.75;2.80;;;5.10;99.90;;;;;;4989031;28;20541;-76
2023/03/29 03:25:49;;;;;;;15.98;3.20;;;5.10;99.90;;;;;;5009855;28;20076;-78
2023/03/29 03:28:15;;;;;;;7.85;2.53;;;5.10;99.90;;;;;;5008932;28;20018;-76
2023/03/29 03:30:41;;;;;;;5.90;2.55;;;5.10;99.90;;;;;;5032134;28;20522;-75
2023/03/29 03:33:06;;;;;;;5.50;2.45;;;5.10;99.90;;;;;;5005857;28;20109;-75
2023/03/29 03:35:32;;;;;;;7.65;2.70;;;5.10;99.90;;;;;;5034820;28;20029;-74
2023/03/29 03:37:58;;;;;;;8.95;2.53;;;5.10;99.90;;;;;;5007000;28;20079;-75
2023/03/29 03:40:24;;;;;;;8.35;2.53;;;5.10;99.90;;;;;;5008040;28;20025;-75
2023/03/29 03:42:50;;;;;;;5.53;2.75;;;5.10;99.90;;;;;;5007729;28;20022;-76
2023/03/29 03:45:15;;;;;;;8.13;3.55;;;5.10;99.90;;;;;;5008518;28;20042;-77
2023/03/29 03:47:41;;;;;;;9.15;3.20;;;5.10;99.90;;;;;;5006272;28;20025;-75
2023/03/29 03:50:07;;;;;;;6.80;2.78;;;5.10;99.90;;;;;;5004887;28;20030;-74
2023/03/29 03:52:33;;;;;;;11.32;2.90;;;5.10;99.90;;;;;;5005970;28;20028;-74
2023/03/29 03:55:01;;;;;;;7.65;2.65;;;5.10;99.90;;;;;;4985972;28;20034;-76
2023/03/29 03:57:27;;;;;;;6.07;2.50;;;5.10;99.90;;;;;;5007703;28;20033;-74
2023/03/29 03:59:53;;;;;;;9.68;3.20;;;5.10;99.90;;;;;;5006658;28;20560;-75
2023/03/29 04:02:19;;;;;;;8.90;2.90;;;5.20;99.90;;;;;;4988196;28;20504;-75
2023/03/29 04:04:45;;;;;;;7.13;2.78;;;5.10;99.90;;;;;;5005045;28;20049;-77
2023/03/29 04:07:13;;;;;;;7.63;3.05;;;5.10;99.90;;;;;;4989181;28;20033;-76
2023/03/29 04:09:38;;;;;;;12.43;3.40;;;5.00;99.90;;;;;;5003342;28;20034;-74
2023/03/29 04:12:04;;;;;;;7.35;3.08;;;5.10;99.90;;;;;;5007681;28;20026;-74
2023/03/29 04:14:31;;;;;;;9.30;3.30;;;5.00;99.90;;;;;;5002777;28;20145;-74
2023/03/29 04:16:56;;;;;;;7.43;3.22;;;5.00;99.90;;;;;;5007992;28;20105;-74
2023/03/29 04:19:22;;;;;;;11.15;4.07;;;5.00;99.90;;;;;;5005767;28;20117;-75
2023/03/29 04:21:48;;;;;;;5.55;3.40;;;5.00;99.90;;;;;;5004326;28;20049;-74
2023/03/29 04:24:16;;;;;;;9.00;3.47;;;5.00;99.90;;;;;;5005100;28;20129;-74
2023/03/29 04:26:42;;;;;;;6.93;3.30;;;5.00;99.90;;;;;;5002341;28;20406;-77
2023/03/29 04:29:07;;;;;;;11.57;4.00;;;5.00;99.90;;;;;;5005378;28;20033;-76
2023/03/29 04:31:34;;;;;;;7.60;3.95;;;5.00;99.90;;;;;;5000850;28;20026;-74
2023/03/29 04:34:00;;;;;;;7.30;3.90;;;5.10;99.90;;;;;;5010557;28;20490;-74
2023/03/29 04:36:25;;;;;;;8.98;4.13;;;5.10;99.90;;;;;;5001384;28;20041;-74
2023/03/29 04:38:51;;;;;;;13.93;4.88;;;5.10;99.90;;;;;;5005516;28;20364;-76
2023/03/29 04:41:18;;;;;;;12.05;5.15;;;5.10;99.90;;;;;;5004889;28;20507;-76
2023/03/29 04:43:47;;;;;;;11.07;5.45;;;5.10;99.90;;;;;;5003922;28;20034;-75
2023/03/29 04:46:14;;;;;;;11.07;6.07;;;5.10;99.90;;;;;;5004447;28;20029;-75
2023/03/29 04:48:40;;;;;;;13.02;6.63;;;5.10;99.90;;;;;;5031997;28;20041;-75
2023/03/29 04:51:06;;;;;;;11.38;7.13;;;5.20;99.90;;;;;;5005292;28;20060;-75
2023/03/29 04:53:33;;;;;;;12.93;6.35;;;5.20;99.90;;;;;;4988963;28;20128;-76
2023/03/29 04:55:58;;;;;;;18.67;8.25;;;5.20;99.90;;;;;;4988524;28;20030;-76
2023/03/29 04:58:27;;;;;;;14.30;7.88;;;5.20;99.90;;;;;;5002070;28;20030;-76
2023/03/29 05:00:59;;;;;;;12.90;8.18;;;5.20;99.90;;;;;;5007646;28;20026;-77
2023/03/29 05:03:25;;;;;;;13.88;6.72;;;5.20;99.90;;;;;;5001665;28;20034;-74
2023/03/29 05:05:52;;;;;;;14.25;7.22;;;5.20;99.90;;;;;;5012543;28;20137;-75
2023/03/29 05:08:18;;;;;;;14.35;7.43;;;5.30;99.90;;;;;;5004276;28;20030;-77
2023/03/29 05:10:43;;;;;;;15.70;8.38;;;5.20;99.90;;;;;;5003034;28;20022;-74
2023/03/29 05:13:10;;;;;;;15.52;8.18;;;5.30;99.90;;;;;;5003320;28;20742;-75
2023/03/29 05:15:36;;;;;;;14.00;8.02;;;5.30;99.90;;;;;;5007520;28;20056;-75
2023/03/29 05:18:02;;;;;;;16.58;9.15;;;5.30;99.90;;;;;;5009021;28;20022;-74
2023/03/29 05:20:28;;;;;;;17.95;9.25;;;5.30;99.90;;;;;;5005763;28;20033;-75
2023/03/29 05:22:55;;;;;;;13.48;8.23;;;5.40;99.90;;;;;;5004254;28;20034;-74
2023/03/29 05:25:22;;;;;;;15.68;9.27;;;5.40;99.90;;;;;;5000943;28;20065;-74
2023/03/29 05:27:47;;;;;;;14.52;9.10;;;5.40;99.90;;;;;;5002890;28;20485;-76
2023/03/29 05:30:14;;;;;;;14.82;9.43;;;5.30;99.90;;;;;;4990231;28;20062;-75
2023/03/29 05:32:41;;;;;;;14.93;8.77;;;5.30;99.90;;;;;;4982863;28;20690;-76
2023/03/29 05:35:10;;;;;;;14.20;8.70;;;5.40;99.90;;;;;;4999979;28;20030;-75
2023/03/29 05:37:36;;;;;;;15.80;9.25;;;5.40;99.90;;;;;;5003815;28;20029;-74
2023/03/29 05:40:07;;;;;;;13.32;8.60;;;5.40;99.90;;;;;;5020129;28;20038;-74
2023/03/29 05:42:33;;;;;;;16.08;8.55;;;5.40;99.90;;;;;;5002443;28;20049;-74
2023/03/29 05:44:58;;;;;;;13.95;8.43;;;5.50;99.90;;;;;;5029911;28;20022;-74
2023/03/29 05:47:24;;;;;;;14.02;8.38;;;5.50;99.90;;;;;;5023919;28;20026;-74
2023/03/29 05:49:50;;;;;;;14.35;8.60;;;5.50;99.90;;;;;;5006572;28;20146;-75
2023/03/29 05:52:16;;;;;;;16.02;8.30;;;5.50;99.90;;;;;;5005889;28;20268;-75
2023/03/29 05:54:41;;;;;;;16.58;8.90;;;5.50;99.90;;;;;;5031477;28;20030;-76
2023/03/29 05:57:07;;;;;;;14.88;8.35;;;5.50;99.90;;;;;;5005191;28;20045;-74
2023/03/29 05:59:34;;;;;;;13.80;8.38;;;5.50;99.90;;;;;;5027886;28;20038;-73
2023/03/29 06:02:01;;;;;;;13.57;7.85;;;5.60;99.90;;;;;;5029578;28;20042;-73
2023/03/29 06:04:27;;;;;;;14.68;7.85;;;5.60;99.90;;;;;;5007261;28;20540;-74
2023/03/29 06:06:53;;;;;;;14.68;7.55;;;5.60;99.90;;;;;;5006824;28;20026;-74
2023/03/29 06:09:19;;;;;;;16.23;8.00;;;5.60;99.90;;;;;;5009605;28;20489;-75
2023/03/29 06:11:45;;;;;;;17.95;8.77;;;5.60;99.90;;;;;;5013748;28;20080;-78
2023/03/29 06:14:12;;;;;;;16.20;8.65;;;5.70;99.90;;;;;;4993083;28;20085;-79
2023/03/29 06:16:39;;;;;;;17.77;8.70;;;5.70;99.90;;;;;;5011481;28;20434;-79
2023/03/29 06:19:06;;;;;;;13.38;8.50;;;5.70;99.90;;;;;;5018984;28;20088;-74
2023/03/29 06:21:32;;;;;;;9.27;5.90;;;5.80;99.90;;;;;;5010385;28;20528;-75
2023/03/29 06:23:58;;;;;;;17.27;8.43;;;6.10;99.90;;;;;;5007846;28;20038;-75
2023/03/29 06:26:26;;;;;;;14.73;8.20;;;6.10;99.90;;;;;;5009690;28;20025;-75
2023/03/29 06:28:52;;;;;;;16.25;8.38;;;6.00;99.90;;;;;;5033154;28;20030;-74
2023/03/29 06:31:19;;;;;;;13.52;7.70;;;5.90;99.90;;;;;;5003810;28;20450;-75
2023/03/29 06:33:45;;;;;;;13.55;8.30;;;5.90;99.90;;;;;;5006074;28;20040;-76
2023/03/29 06:36:14;;;;;;;14.27;8.02;;;5.90;99.90;;;;;;5007219;28;20038;-75
2023/03/29 06:38:41;;;;;;;15.68;8.13;;;5.90;99.90;;;;;;5008492;28;20034;-75
2023/03/29 06:41:09;;;;;;;12.40;7.75;;;5.90;99.90;;;;;;5003209;28;21795;-75
2023/03/29 06:43:36;;;;;;;11.55;7.63;;;5.90;99.90;;;;;;5007325;28;20084;-76
2023/03/29 06:46:02;;;;;;;12.15;7.22;;;5.90;99.90;;;;;;5007589;28;20057;-75
2023/03/29 06:48:29;;;;;;;17.70;7.30;;;5.90;99.90;;;;;;5004868;28;20048;-74
2023/03/29 06:50:55;;;;;;;13.02;7.85;;;5.90;99.90;;;;;;5029211;28;20038;-74
2023/03/29 06:53:21;;;;;;;10.05;6.90;;;6.00;99.90;;;;;;5008042;28;20044;-74
2023/03/29 06:55:48;;;;;;;11.55;6.85;;;6.00;99.90;;;;;;5008937;28;20062;-75
2023/03/29 06:58:15;;;;;;;13.02;6.75;;;6.00;99.90;;;;;;5002849;28;20057;-76
2023/03/29 07:00:41;;;;;;;10.82;7.10;;;6.00;99.90;;;;;;5016412;28;20037;-75
2023/03/29 07:03:18;;;;;;;9.85;6.30;;;6.00;99.90;;;;;;5003688;28;20030;-75
2023/03/29 07:05:46;;;;;;;11.85;6.55;;;6.00;99.90;;;;;;5001841;28;20024;-75
2023/03/29 07:08:14;;;;;;;12.50;7.05;;;6.10;99.90;;;;;;5004247;28;20196;-74
2023/03/29 07:10:46;;;;;;;12.43;6.57;;;6.10;99.90;;;;;;5003307;28;20022;-76
2023/03/29 07:13:12;;;;;;;10.18;5.82;;;6.20;99.90;;;;;;5007537;28;20024;-75
2023/03/29 07:15:40;;;;;;;9.63;5.45;;;6.20;99.90;;;;;;5009485;28;20088;-76
2023/03/29 07:18:08;;;;;;;12.88;5.85;;;6.30;99.90;;;;;;5003835;28;20113;-75
2023/03/29 07:20:34;;;;;;;8.13;5.60;;;6.30;99.90;;;;;;5005968;28;20034;-74
2023/03/29 07:23:00;;;;;;;8.88;5.30;;;6.30;99.90;;;;;;5006910;28;20034;-75
2023/03/29 07:25:26;;;;;;;12.48;5.80;;;6.40;99.90;;;;;;5006672;28;20052;-74
2023/03/29 07:27:52;;;;;;;11.02;5.60;;;6.40;99.90;;;;;;5005472;28;20679;-74
2023/03/29 07:30:21;;;;;;;11.13;5.82;;;6.50;99.90;;;;;;5008758;28;20026;-77
2023/03/29 07:32:49;;;;;;;8.75;5.55;;;6.50;99.90;;;;;;5006938;28;20037;-74
2023/03/29 07:35:16;;;;;;;8.23;4.80;;;6.50;99.90;;;;;;5007859;28;20022;-77
2023/03/29 07:37:43;;;;;;;12.35;5.38;;;6.60;99.90;;;;;;5023908;28;20072;-79
2023/03/29 07:40:15;;;;;;;9.80;5.40;;;6.70;99.90;;;;;;5007017;28;20418;-75
2023/03/29 07:42:44;;;;;;;10.55;5.30;;;6.70;99.90;;;;;;5008813;28;20029;-74
2023/03/29 07:45:12;;;;;;;9.50;5.43;;;6.70;99.90;;;;;;4990913;28;20092;-75
2023/03/29 07:47:42;;;;;;;9.35;4.57;;;6.80;99.90;;;;;;5008638;28;20476;-74
2023/03/29 07:50:09;;;;;;;6.97;4.45;;;6.90;99.90;;;;;;5007516;28;20053;-75
2023/03/29 07:52:37;;;;;;;8.02;4.93;;;6.90;99.90;;;;;;5006183;28;20129;-74
2023/03/29 07:55:05;;;;;;;8.23;5.30;;;6.90;99.90;;;;;;5007404;28;20046;-75
2023/03/29 07:57:30;;;;;;;9.23;5.30;;;7.00;99.90;;;;;;5007022;28;20030;-74
2023/03/29 07:59:56;;;;;;;7.20;4.97;;;7.00;99.90;;;;;;5028788;28;20044;-76
2023/03/29 08:02:22;;;;;;;10.70;4.85;;;7.10;99.90;;;;;;5007131;28;20022;-74
2023/03/29 08:04:48;;;;;;;9.75;4.70;;;7.10;99.90;;;;;;5007165;28;20267;-73
2023/03/29 08:07:17;;;;;;;8.25;4.85;;;7.20;99.90;;;;;;5021405;28;20057;-74
2023/03/29 08:09:43;;;;;;;7.40;4.45;;;7.20;99.90;;;;;;5036650;28;20026;-75
2023/03/29 08:12:09;;;;;;;12.02;4.95;;;7.20;99.90;;;;;;5007224;28;20036;-74
2023/03/29 08:14:35;;;;;;;8.35;4.70;;;7.20;99.90;;;;;;5027917;28;20033;-77
2023/03/29 08:17:01;;;;;;;15.68;5.00;;;7.20;99.90;;;;;;5006989;28;20485;-75
2023/03/29 08:19:27;;;;;;;11.63;5.13;;;7.10;99.90;;;;;;5007154;28;20041;-74
2023/03/29 08:21:53;;;;;;;12.15;4.95;;;7.10;99.90;;;;;;5006217;28;20132;-75
2023/03/29 08:24:18;;;;;;;10.18;5.00;;;7.20;99.90;;;;;;5008168;28;20108;-75
2023/03/29 08:26:44;;;;;;;11.63;4.63;;;7.20;99.90;;;;;;5005790;28;20033;-74
2023/03/29 08:29:10;;;;;;;8.82;5.30;;;7.20;99.90;;;;;;4989544;28;20037;-75
2023/03/29 08:31:36;;;;;;;10.57;4.75;;;7.20;99.90;;;;;;5004290;28;20097;-75
2023/03/29 08:34:02;;;;;;;11.48;4.85;;;7.30;99.90;;;;;;5007016;28;20045;-75
2023/03/29 08:36:28;;;;;;;10.73;4.40;;;7.40;99.90;;;;;;5026856;28;20430;-75
2023/03/29 08:38:54;;;;;;;9.07;4.45;;;7.40;99.90;;;;;;5012330;28;20391;-74
2023/03/29 08:41:49;;;;;;;9.48;4.88;;;7.40;99.90;;;;;;5009689;28;20038;-75
2023/03/29 08:44:38;;;;;;;10.45;5.03;;;7.50;99.90;;;;;;5008378;28;20486;-75
2023/03/29 08:47:09;;;;;;;9.10;4.78;;;7.50;99.90;;;;;;5006579;28;20472;-74
2023/03/29 08:49:38;;;;;;;10.90;5.07;;;7.60;99.90;;;;;;5003314;28;20037;-74
2023/03/29 08:52:13;;;;;;;11.50;4.93;;;7.60;99.90;;;;;;4987787;28;20038;-73
2023/03/29 08:54:44;;;;;;;8.02;4.93;;;7.60;99.90;;;;;;4991196;28;20050;-74
2023/03/29 08:57:34;;;;;;;13.82;5.00;;;7.60;99.90;;;;;;4981508;28;20394;-75
2023/03/29 09:00:04;;;;;;;8.70;4.38;;;7.50;99.90;;;;;;5011480;28;20034;-74
2023/03/29 09:02:33;;;;;;;9.98;4.97;;;7.60;99.90;;;;;;4998037;28;20029;-75
2023/03/29 09:05:07;;;;;;;14.27;4.40;;;7.50;99.90;;;;;;4988415;28;20057;-74
2023/03/29 09:07:33;;;;;;;10.32;4.72;;;7.50;99.90;;;;;;4981923;28;20023;-74
2023/03/29 09:09:59;;;;;;;11.60;4.47;;;7.50;99.90;;;;;;4986210;28;20138;-75
2023/03/29 09:12:43;;;;;;;9.48;4.75;;;7.50;99.90;;;;;;4999291;28;20022;-74
2023/03/29 09:15:22;;;;;;;9.75;4.90;;;7.60;99.90;;;;;;4986134;28;20037;-74
2023/03/29 09:17:56;;;;;;;7.75;4.20;;;7.60;99.90;;;;;;4985221;28;20030;-74
2023/03/29 09:20:37;;;;;;;6.93;4.22;;;7.70;99.90;;;;;;4982323;28;20442;-74
2023/03/29 09:23:22;;;;;;;7.47;4.38;;;7.80;99.90;;;;;;4984603;28;20041;-74
2023/03/29 09:25:59;;;;;;;8.57;4.45;;;7.80;99.90;;;;;;5002135;28;20033;-74
2023/03/29 09:28:52;;;;;;;9.55;5.10;;;7.70;99.90;;;;;;5007840;28;20541;-75
2023/03/29 09:31:33;;;;;;;7.05;4.40;;;7.80;99.90;;;;;;5015052;28;20073;-74
2023/03/29 09:34:11;;;;;;;9.63;4.75;;;7.90;99.90;;;;;;5009078;28;20047;-74
2023/03/29 09:36:48;;;;;;;7.35;4.00;;;8.00;99.90;;;;;;5008449;28;20034;-76
2023/03/29 09:39:15;;;;;;;10.95;4.30;;;8.10;99.90;;;;;;5009560;28;20113;-75
2023/03/29 09:42:10;;;;;;;6.72;4.45;;;8.20;99.90;;;;;;5010222;28;20421;-75
2023/03/29 09:44:42;;;;;;;9.27;4.43;;;8.20;99.90;;;;;;5007033;28;20152;-75
2023/03/29 09:47:39;;;;;;;12.63;4.57;;;8.20;99.90;;;;;;5006674;28;20466;-75
2023/03/29 09:50:23;;;;;;;8.20;4.78;;;8.30;99.90;;;;;;5009594;28;20405;-76
2023/03/29 09:52:49;;;;;;;9.77;4.45;;;8.40;99.90;;;;;;5011242;28;20041;-76
2023/03/29 09:55:17;;;;;;;8.25;4.95;;;8.40;99.90;;;;;;5038372;28;20041;-75
2023/03/29 09:57:45;;;;;;;9.10;4.63;;;8.40;99.90;;;;;;5035398;28;20057;-75
2023/03/29 10:00:13;;;;;;;12.93;4.53;;;8.40;99.90;;;;;;4991408;28;20033;-75
2023/03/29 10:02:39;;;;;;;7.43;4.63;;;8.40;99.90;;;;;;5011407;28;20029;-75
2023/03/29 10:05:06;;;;;;;14.32;6.13;;;8.60;99.90;;;;;;5009647;28;20053;-74
2023/03/29 10:07:45;;;;;;;8.55;4.88;;;8.60;99.90;;;;;;5010108;28;20029;-75
2023/03/29 10:10:26;;;;;;;9.50;4.50;;;8.70;99.90;;;;;;5008860;28;20175;-75
2023/03/29 10:12:53;;;;;;;;;;;8.80;99.90;;;;;;5011129;28;20037;-74
2023/03/29 10:15:20;;;;;;;9.02;4.82;;;8.90;99.90;;;;;;5006841;28;20262;-75
2023/03/29 10:17:56;;;;;;;8.82;5.20;;;8.80;99.90;;;;;;5016876;28;20034;-74
2023/03/29 10:20:23;;;;;;;10.38;4.93;;;8.80;99.90;;;;;;5044525;28;20033;-74
2023/03/29 10:22:59;;;;;;;10.93;5.40;;;8.80;99.90;;;;;;5049636;28;20610;-75
2023/03/29 10:25:30;;;;;;;7.93;5.13;;;8.70;99.90;;;;;;4987666;28;20025;-75
2023/03/29 10:28:23;;;;;;;8.82;5.70;;;8.60;99.90;;;;;;5012569;28;20128;-74
2023/03/29 10:30:58;;;;;;;9.25;5.00;;;8.70;99.90;;;;;;5014407;28;20521;-75
2023/03/29 10:33:29;;;;;;;9.73;4.93;;;8.80;99.90;;;;;;5024466;28;20437;-74
2023/03/29 10:35:56;;;;;;;10.07;4.90;;;9.00;99.90;;;;;;5010152;28;20049;-75
2023/03/29 10:38:27;;;;;;;13.43;5.57;;;9.20;99.90;;;;;;5026303;28;20121;-73
2023/03/29 10:40:54;;;;;;;8.32;5.25;;;9.30;99.90;;;;;;5008373;28;20037;-75
2023/03/29 10:43:31;;;;;;;9.85;5.03;;;9.50;99.90;;;;;;5006690;28;20041;-75
2023/03/29 10:46:11;;;;;;;11.45;5.47;;;9.80;99.90;;;;;;5045925;28;20401;-74
2023/03/29 10:48:38;;;;;;;14.30;5.40;;;10.10;99.90;;;;;;5011408;28;20037;-75
2023/03/29 10:51:06;;;;;;;9.25;5.38;;;10.10;99.90;;;;;;5012342;28;20053;-77
2023/03/29 10:53:36;;;;;;;11.13;5.75;;;9.80;99.90;;;;;;4996719;28;20044;-75
2023/03/29 10:56:06;;;;;;;14.57;5.37;;;9.60;99.90;;;;;;5010682;28;20034;-75
2023/03/29 10:58:53;;;;;;;8.75;5.15;;;9.30;99.90;;;;;;5008011;28;20663;-74
2023/03/29 11:01:37;;;;;;;7.28;5.60;;;9.30;99.90;;;;;;5003880;28;20856;-75
2023/03/29 11:04:21;;;;;;;10.30;5.57;;;9.20;99.90;;;;;;5008760;28;20038;-75
2023/03/29 11:07:25;;;;;;;11.90;6.05;;;9.30;99.90;;;;;;5010995;28;20022;-75
2023/03/29 11:10:05;;;;;;;11.32;5.95;;;9.30;99.90;;;;;;5041390;28;20030;-75
2023/03/29 11:13:01;;;;;;;11.35;5.68;;;9.30;99.90;;;;;;5009974;28;20054;-74
2023/03/29 11:16:09;;;;;;;13.48;6.70;;;9.20;99.90;;;;;;4991193;28;20034;-75
2023/03/29 11:19:05;;;;;;;9.98;6.05;;;9.20;99.90;;;;;;4958750;28;20047;-75
2023/03/29 11:21:44;;;;;;;11.68;6.65;;;9.20;99.90;;;;;;5007893;28;20037;-75
2023/03/29 11:24:30;;;;;;;14.95;6.50;;;9.20;99.90;;;;;;5008823;28;20033;-75
2023/03/29 11:27:28;;;;;;;10.98;6.13;;;9.20;99.90;;;;;;5008029;28;20264;-77
2023/03/29 11:30:09;;;;;;;12.80;6.95;;;9.20;99.90;;;;;;4993207;28;20534;-74
2023/03/29 11:33:00;;;;;;;9.48;6.28;;;9.20;99.90;;;;;;5008082;28;20084;-75
2023/03/29 11:35:36;;;;;;;12.10;6.68;;;9.20;99.90;;;;;;4991687;28;20045;-74
2023/03/29 11:38:21;;;;;;;12.82;6.47;;;9.30;99.90;;;;;;5008815;28;20034;-75
2023/03/29 11:40:59;;;;;;;11.95;6.88;;;9.20;99.90;;;;;;4992579;28;20022;-75
2023/03/29 11:43:36;;;;;;;11.90;6.75;;;9.20;99.90;;;;;;5010125;28;20498;-76
2023/03/29 11:46:36;;;;;;;11.93;7.20;;;9.20;99.90;;;;;;5008785;28;20045;-75
2023/03/29 11:49:14;;;;;;;11.02;7.45;;;9.20;99.90;;;;;;5008599;28;20496;-75
2023/03/29 11:52:09;;;;;;;12.65;7.15;;;9.20;99.90;;;;;;5007344;28;20030;-75
2023/03/29 11:54:39;;;;;;;13.63;7.18;;;9.20;99.90;;;;;;5007292;28;20038;-75
2023/03/29 11:57:26;;;;;;;15.82;7.13;;;9.20;99.90;;;;;;5008842;28;20034;-75
2023/03/29 12:00:11;;;;;;;11.68;7.05;;;9.20;99.90;;;;;;5008946;28;20034;-75
2023/03/29 12:02:51;;;;;;;10.88;7.03;;;9.30;99.90;;;;;;5011347;28;20060;-73
2023/03/29 12:05:46;;;;;;;14.93;7.93;;;9.40;99.90;;;;;;5009230;28;20030;-74
2023/03/29 12:08:21;;;;;;;13.18;7.55;;;9.40;99.90;;;;;;4972372;28;20075;-74
2023/03/29 12:11:06;;;;;;;11.70;7.55;;;9.40;99.90;;;;;;4979158;28;20026;-75
2023/03/29 12:14:10;;;;;;;11.48;8.05;;;9.50;99.90;;;;;;4990517;28;20093;-75
2023/03/29 12:16:44;;;;;;;11.25;7.32;;;9.50;99.90;;;;;;4979925;28;20034;-76
2023/03/29 12:19:18;;;;;;;12.73;7.50;;;9.60;99.90;;;;;;4977786;28;20504;-74
2023/03/29 12:21:46;;;;;;;14.35;7.97;;;9.70;99.90;;;;;;4974222;28;20097;-75
2023/03/29 12:24:14;;;;;;;11.93;7.60;;;9.90;99.90;;;;;;4985097;28;20030;-76
2023/03/29 12:27:07;;;;;;;13.02;7.97;;;10.10;99.90;;;;;;4986871;28;20041;-75
2023/03/29 12:29:38;;;;;;;14.55;7.82;;;10.20;99.90;;;;;;4969133;28;20041;-76
2023/03/29 12:32:15;;;;;;;13.45;7.60;;;10.30;99.90;;;;;;4967996;28;20031;-75
2023/03/29 12:34:58;;;;;;;11.90;7.03;;;10.20;99.90;;;;;;4954467;28;20030;-75
2023/03/29 12:37:53;;;;;;;20.33;8.55;;;10.10;99.90;;;;;;4970721;28;20033;-75
2023/03/29 12:40:21;;;;;;;15.20;7.78;;;10.10;99.90;;;;;;4939423;28;20030;-75
2023/03/29 12:43:02;;;;;;;11.88;7.93;;;9.90;99.90;;;;;;4971035;28;20029;-75
2023/03/29 12:45:33;;;;;;;11.80;7.50;;;9.90;99.90;;;;;;5001398;28;20511;-75
2023/03/29 12:48:00;;;;;;;14.75;8.23;;;9.90;99.90;;;;;;5003859;28;20041;-76
2023/03/29 12:50:33;;;;;;;11.70;7.47;;;9.90;99.90;;;;;;5019047;28;20041;-79
2023/03/29 12:53:31;;;;;;;11.20;7.88;;;10.00;99.90;;;;;;5000693;28;20133;-74
2023/03/29 12:56:07;;;;;;;14.95;7.60;;;10.00;99.90;;;;;;5005101;28;20026;-74
2023/03/29 12:58:41;;;;;;;10.93;7.97;;;10.00;99.90;;;;;;5021679;28;20378;-83
2023/03/29 13:01:28;;;;;;;13.73;7.95;;;10.00;99.90;;;;;;5004162;28;20080;-76
2023/03/29 13:04:13;;;;;;;19.27;8.40;;;10.20;99.90;;;;;;5003150;28;20577;-75
2023/03/29 13:06:47;;;;;;;10.52;7.20;;;10.60;99.90;;;;;;4987873;28;20030;-78
2023/03/29 13:09:28;;;;;;;9.00;6.88;;;10.70;99.90;;;;;;5006519;28;20026;-75
2023/03/29 13:12:06;;;;;;;9.65;6.88;;;10.80;99.90;;;;;;5005392;28;20037;-74
2023/03/29 13:14:36;;;;;;;11.75;7.05;;;10.70;99.90;;;;;;5019755;28;20030;-75
2023/03/29 13:17:07;;;;;;;10.63;6.85;;;10.70;99.90;;;;;;5004908;28;20034;-75